This is the latest recevied weather packets stored in our database for station/object HS5AU-13. If no packets are shown the sender has not sent any weather packets the latest 10 day(s).
| Time | Temp. | Humidity | Pressure | Rain* | Wind** | Luminosity | Snow |
|---|---|---|---|---|---|---|---|
| 1788499506 | 30° C | 75% | 1008.3 hPa | 0 mm | - | 626 W/m² | - |
| 1788498905 | 29.44° C | 82% | 1008.4 hPa | 0 mm | - | 567 W/m² | - |
| 1788498307 | 28.89° C | 73% | 1008.9 hPa | 0 mm | - | 517 W/m² | - |
| 1788497705 | 30.56° C | 76% | 1008.9 hPa | 0 mm | - | 466 W/m² | - |
| 1788497105 | 29.44° C | 76% | 1008.9 hPa | 0 mm | - | 993 W/m² | - |
| 1788496505 | 28.89° C | 73% | 1009.2 hPa | 0 mm | - | 306 W/m² | - |
| 1788495906 | 28.89° C | 71% | 1009.2 hPa | 0 mm | - | 723 W/m² | - |
| 1788495305 | 27.78° C | 77% | 1009 hPa | 0 mm | - | 751 W/m² | - |
| 1788494705 | 28.33° C | 75% | 1009.1 hPa | 0 mm | - | 1101 W/m² | - |
| 1788494105 | 28.33° C | 72% | 1009.2 hPa | 0 mm | - | 1047 W/m² | - |
| 1788493505 | 27.78° C | 74% | 1009.3 hPa | 0 mm | - | 918 W/m² | - |
| 1788492905 | 26.67° C | 74% | 1009.3 hPa | 0 mm | - | 562 W/m² | - |
| 1788492305 | 26.67° C | 80% | 1009.1 hPa | 0 mm | - | 335 W/m² | - |
| 1788491705 | 27.78° C | 74% | 1009.2 hPa | 0 mm | - | 391 W/m² | - |
| 1788491105 | 28.33° C | 76% | 1009 hPa | 0 mm | - | 943 W/m² | - |
| 1788490505 | 27.78° C | 75% | 1009.1 hPa | 0 mm | - | 889 W/m² | - |
| 1788489905 | 27.78° C | 77% | 1008.9 hPa | 0 mm | - | 821 W/m² | - |
| 1788489305 | 26.67° C | 79% | 1008.6 hPa | 0 mm | - | 816 W/m² | - |
| 1788488705 | 26.11° C | 83% | 1008.2 hPa | 0 mm | - | 790 W/m² | - |
| 1788488105 | 25.56° C | 84% | 1007.8 hPa | 0 mm | - | 391 W/m² | - |
| 1788487505 | 25° C | 86% | 1007.6 hPa | 0 mm | - | 438 W/m² | - |
| 1788486905 | 25° C | 82% | 1007.8 hPa | 0 mm | - | 401 W/m² | - |
| 1788486305 | 25.56° C | 86% | 1007 hPa | 0 mm | - | 594 W/m² | - |
| 1788485705 | 24.44° C | 90% | 1006.5 hPa | 0 mm | - | 254 W/m² | - |
| 1788485105 | 23.89° C | 87% | 1006 hPa | 0 mm | - | 207 W/m² | - |
* Rain latest hour (hover to see other rain measurements)
** Current wind speed in m/s (hover to see current wind gust speed)